Briefing drone pour Nevers (LFQG)

Rechercher une autre localisation

Conditions de vol :


Nous sommes le : Samedi 27 février 2021
Il est 06:47 UTC (07:47 LT)

Lever de soleil : 06:03 UTC (07:03 LT)
Coucher de soleil : 17:56 UTC (18:56 LT)

Météo

L'essentiel des conditions de vol

VIGILANCE MÉTÉO FRANCE - Nièvre (58)
Pas de vigilances particulieres
CARTE TEMSI
CARTES DES FRONTS
METAR de LFQG
LFQG 270630Z AUTO 28003KT CAVOK 01/M00 Q1034

Date d'émission: 27/02/2021
Heure d'émission: 06:30 UTC
Vent: 280° pour 3 KT (6 km/h)
Visibilité horizontale: > 10 km
Plafond : Plafond et visibilité OK (CAVOK)
Température: 1 °C
Point de rosée: 0 °C
Humidité: 93%
Pression (QNH): 1034 hPa
Prévision 24h pour Nevers
Vent : 26° pour 2 KT (8 km/h)
Temperature Maxi: 1 °C
Temperature Min: 1 °C
Humidité : 94%
Condition : Ciel dégagé



Warning: count(): Parameter must be an array or an object that implements Countable in /homepages/6/d509196549/htdocs/droneoxygene/briefing.php on line 743
WEBCAM POUR NEVERS

Réglementation

Voler en sécurité

CARTES AERONAUTIQUE 1/500.000
CARTES VAC (LFQG)
SUP AIP




Chargement des AIP...
NOTAM (NEVERS + Terrain à proximité / FIR )




Chargement des NOTAMS...
CONTACT PREFECTURE 58


Avertissement : Les données mises à disposition sont indicatives. Oxygène Drone ne pourra être tenu responsable de dégâts causés aux biens et aux personnes.